Time;durP1;ratioP1;P1;durP2;ratioP2;P2;SDS_P1;SDS_P2;PMS_P1;PMS_P2;Temp;Humidity;BMP_temperature;BMP_pressure;BME280_temperature;BME280_humidity;BME280_pressure;Samples;Min_cycle;Max_cycle;Signal;HPM_P1;HPM_P2
2024/04/09 00:01:09;;;;;;;29.90;5.13;;;17.90;99.90;;;;;;5344323;26;20020;-61
2024/04/09 00:03:39;;;;;;;14.07;3.60;;;17.90;99.90;;;;;;5340221;26;21834;-61
2024/04/09 00:06:14;;;;;;;21.55;3.92;;;17.90;99.90;;;;;;5339899;26;20485;-61
2024/04/09 00:08:44;;;;;;;28.17;4.43;;;17.90;99.90;;;;;;5320248;26;20021;-61
2024/04/09 00:11:22;;;;;;;24.33;3.80;;;17.90;99.90;;;;;;5306585;26;20042;-61
2024/04/09 00:13:54;;;;;;;23.48;4.32;;;17.90;99.90;;;;;;5306760;27;20020;-62
2024/04/09 00:16:27;;;;;;;21.90;4.78;;;17.90;99.90;;;;;;5306475;26;19997;-61
2024/04/09 00:18:57;;;;;;;25.65;3.67;;;18.00;99.90;;;;;;5304906;27;20009;-61
2024/04/09 00:21:28;;;;;;;20.27;4.15;;;18.00;99.90;;;;;;5305104;26;20331;-61
2024/04/09 00:23:56;;;;;;;20.67;3.92;;;18.00;99.90;;;;;;5305462;27;19998;-61
2024/04/09 00:26:25;;;;;;;28.42;5.30;;;18.00;99.90;;;;;;5305821;27;20009;-60
2024/04/09 00:28:52;;;;;;;26.90;4.78;;;17.90;99.90;;;;;;5306795;27;20006;-62
2024/04/09 00:31:21;;;;;;;21.33;4.40;;;17.80;99.90;;;;;;5306036;27;20371;-61
2024/04/09 00:33:48;;;;;;;21.07;3.70;;;17.80;99.90;;;;;;5307346;26;20017;-61
2024/04/09 00:36:15;;;;;;;16.05;4.10;;;17.70;99.90;;;;;;5303477;27;20013;-62
2024/04/09 00:38:46;;;;;;;29.13;4.22;;;17.60;99.90;;;;;;5307281;27;20020;-62
2024/04/09 00:41:16;;;;;;;24.60;4.88;;;17.60;99.90;;;;;;5305672;26;20022;-61
2024/04/09 00:43:43;;;;;;;28.92;5.45;;;17.70;99.90;;;;;;5297282;27;20002;-61
2024/04/09 00:46:11;;;;;;;19.02;4.88;;;17.80;99.90;;;;;;5304009;26;20009;-61
2024/04/09 00:48:38;;;;;;;19.70;4.28;;;17.80;99.90;;;;;;5306482;27;20016;-61
2024/04/09 00:51:09;;;;;;;18.48;4.68;;;17.80;99.90;;;;;;5305478;27;20002;-61
2024/04/09 00:53:36;;;;;;;30.90;5.38;;;17.90;99.90;;;;;;5305605;27;19997;-61
2024/04/09 00:56:05;;;;;;;22.92;4.22;;;18.10;99.90;;;;;;5305928;27;20005;-62
2024/04/09 00:58:34;;;;;;;16.73;3.30;;;18.10;99.90;;;;;;5305427;26;20016;-61
2024/04/09 01:01:03;;;;;;;22.75;4.20;;;18.20;99.90;;;;;;5306117;26;20013;-61
2024/04/09 01:03:31;;;;;;;20.08;4.82;;;18.20;99.90;;;;;;5302443;27;20345;-60
2024/04/09 01:05:58;;;;;;;20.63;3.75;;;18.30;99.90;;;;;;5305662;26;20009;-62
2024/04/09 01:08:25;;;;;;;19.55;4.65;;;18.50;99.90;;;;;;5306187;26;19997;-62
2024/04/09 01:10:51;;;;;;;17.27;3.70;;;18.50;99.90;;;;;;5306634;26;20357;-61
2024/04/09 01:13:18;;;;;;;16.20;3.47;;;18.60;99.90;;;;;;5306307;26;20054;-60
2024/04/09 01:15:45;;;;;;;17.42;3.22;;;18.60;99.90;;;;;;5306408;26;20002;-62
2024/04/09 01:18:12;;;;;;;22.63;3.95;;;18.60;99.90;;;;;;5304628;26;20005;-62
2024/04/09 01:20:39;;;;;;;14.60;3.38;;;18.70;99.90;;;;;;5316013;26;20490;-62
2024/04/09 01:23:06;;;;;;;18.27;3.15;;;18.70;99.90;;;;;;5311644;26;20079;-62
2024/04/09 01:25:32;;;;;;;21.25;3.80;;;18.70;99.90;;;;;;5306750;26;20009;-61
2024/04/09 01:27:59;;;;;;;21.20;4.35;;;18.60;99.90;;;;;;5310121;26;20017;-62
2024/04/09 01:30:26;;;;;;;20.83;3.20;;;18.60;99.90;;;;;;5310290;26;20084;-61
2024/04/09 01:32:53;;;;;;;18.42;3.72;;;18.60;99.90;;;;;;5315150;26;20472;-62
2024/04/09 01:35:20;;;;;;;20.48;4.07;;;18.50;99.90;;;;;;5312320;26;20019;-61
2024/04/09 01:37:47;;;;;;;18.58;4.30;;;18.50;99.90;;;;;;5307975;26;20017;-61
2024/04/09 01:40:15;;;;;;;21.30;3.70;;;18.40;99.90;;;;;;5315535;26;20024;-62
2024/04/09 01:42:42;;;;;;;18.02;3.50;;;18.40;99.90;;;;;;5304433;26;20020;-62
2024/04/09 01:45:08;;;;;;;23.83;3.80;;;18.40;99.90;;;;;;5305770;26;20017;-59
2024/04/09 01:47:36;;;;;;;16.48;5.22;;;18.30;99.90;;;;;;5302906;26;20010;-61
2024/04/09 01:50:04;;;;;;;24.25;3.47;;;18.30;99.90;;;;;;5306619;26;20354;-61
2024/04/09 01:52:31;;;;;;;16.50;3.38;;;18.40;99.90;;;;;;5305865;26;20014;-61
2024/04/09 01:54:58;;;;;;;18.83;3.22;;;18.50;99.90;;;;;;5307161;26;20004;-62
2024/04/09 01:57:31;;;;;;;18.55;3.08;;;18.40;99.90;;;;;;5305326;26;20351;-61
2024/04/09 01:59:59;;;;;;;15.68;3.03;;;18.40;99.90;;;;;;5304770;26;20006;-62
2024/04/09 02:02:26;;;;;;;12.88;2.70;;;18.60;99.90;;;;;;5303183;26;20033;-60
2024/04/09 02:04:53;;;;;;;17.05;2.92;;;18.50;99.90;;;;;;5306075;26;20002;-62
2024/04/09 02:07:20;;;;;;;13.85;3.92;;;18.40;99.90;;;;;;5311288;26;20009;-61
2024/04/09 02:09:49;;;;;;;10.50;3.33;;;18.30;99.90;;;;;;5344855;26;20004;-62
2024/04/09 02:12:16;;;;;;;12.85;3.22;;;18.20;99.90;;;;;;5342141;26;20005;-62
2024/04/09 02:14:43;;;;;;;16.98;2.83;;;18.20;99.90;;;;;;5342937;26;20016;-61
2024/04/09 02:17:11;;;;;;;24.50;3.30;;;18.10;99.90;;;;;;5346375;26;20005;-62
2024/04/09 02:19:38;;;;;;;18.15;3.20;;;18.10;99.90;;;;;;5338205;26;20016;-62
2024/04/09 02:22:05;;;;;;;14.02;2.70;;;18.00;99.90;;;;;;5334214;26;20016;-61
2024/04/09 02:24:32;;;;;;;19.35;4.35;;;18.00;99.90;;;;;;5337824;26;20009;-62
2024/04/09 02:26:58;;;;;;;19.48;2.90;;;17.90;99.90;;;;;;5342229;26;20349;-62
2024/04/09 02:29:26;;;;;;;18.38;3.40;;;17.80;99.90;;;;;;5338905;26;20040;-61
2024/04/09 02:31:52;;;;;;;24.67;3.85;;;17.80;99.90;;;;;;5339584;26;20079;-62
2024/04/09 02:34:24;;;;;;;14.52;3.00;;;17.90;99.90;;;;;;5338302;26;20020;-61
2024/04/09 02:36:51;;;;;;;19.50;3.70;;;17.90;99.90;;;;;;5338849;26;20148;-62
2024/04/09 02:39:18;;;;;;;21.83;3.40;;;18.00;99.90;;;;;;5339089;26;20001;-61
2024/04/09 02:41:45;;;;;;;25.40;3.83;;;18.00;99.90;;;;;;5339739;26;20086;-61
2024/04/09 02:44:12;;;;;;;11.80;2.72;;;18.00;99.90;;;;;;5338439;26;20079;-61
2024/04/09 02:46:39;;;;;;;26.95;3.85;;;18.10;99.90;;;;;;5337294;26;20005;-61
2024/04/09 02:49:06;;;;;;;20.85;3.60;;;18.00;99.90;;;;;;5335162;26;20509;-61
2024/04/09 02:51:35;;;;;;;14.02;3.30;;;18.00;99.90;;;;;;5338051;26;20075;-61
2024/04/09 02:54:02;;;;;;;9.52;2.53;;;17.90;99.90;;;;;;5338547;26;20004;-61
2024/04/09 02:56:30;;;;;;;25.83;3.22;;;17.90;99.90;;;;;;5339114;26;20016;-61
2024/04/09 02:58:57;;;;;;;17.58;3.72;;;17.80;99.90;;;;;;5336259;26;20037;-61
2024/04/09 03:01:24;;;;;;;18.27;4.22;;;17.80;99.90;;;;;;5339236;26;20023;-60
2024/04/09 03:03:51;;;;;;;15.85;2.60;;;17.80;99.90;;;;;;5339390;26;19997;-62
2024/04/09 03:06:18;;;;;;;12.88;3.17;;;17.90;99.90;;;;;;5339342;26;20005;-60
2024/04/09 03:08:45;;;;;;;19.70;3.58;;;17.90;99.90;;;;;;5337750;26;20078;-61
2024/04/09 03:11:12;;;;;;;16.65;3.47;;;18.00;99.90;;;;;;5339724;26;20078;-60
2024/04/09 03:13:41;;;;;;;23.00;3.10;;;18.00;99.90;;;;;;5338338;26;20029;-61
2024/04/09 03:16:21;;;;;;;20.40;2.78;;;18.00;99.90;;;;;;5339253;26;20004;-60
2024/04/09 03:18:55;;;;;;;18.05;2.70;;;18.10;99.90;;;;;;5335308;26;20399;-61
2024/04/09 03:21:22;;;;;;;15.10;3.00;;;18.10;99.90;;;;;;5338830;26;20012;-61
2024/04/09 03:23:49;;;;;;;14.80;3.08;;;18.10;99.90;;;;;;5339076;26;20082;-61
2024/04/09 03:26:16;;;;;;;13.30;2.83;;;18.10;99.90;;;;;;5337036;26;20021;-62
2024/04/09 03:28:42;;;;;;;20.10;3.50;;;18.10;99.90;;;;;;5337203;26;20012;-61
2024/04/09 03:31:10;;;;;;;15.52;3.33;;;18.10;99.90;;;;;;5337433;26;20756;-60
2024/04/09 03:33:36;;;;;;;15.48;3.00;;;18.10;99.90;;;;;;5337861;26;20345;-61
2024/04/09 03:36:06;;;;;;;17.63;3.95;;;18.00;99.90;;;;;;5337705;26;20078;-59
2024/04/09 03:38:32;;;;;;;15.40;2.88;;;18.00;99.90;;;;;;5338299;26;19997;-61
2024/04/09 03:41:05;;;;;;;16.02;2.83;;;17.90;99.90;;;;;;5338069;26;20016;-61
2024/04/09 03:43:32;;;;;;;14.57;2.70;;;17.90;99.90;;;;;;5338119;26;20017;-61
2024/04/09 03:46:13;;;;;;;14.63;2.08;;;17.80;99.90;;;;;;5336064;26;20091;-61
2024/04/09 03:48:45;;;;;;;15.63;2.60;;;17.80;99.90;;;;;;5307894;26;20461;-61
2024/04/09 03:51:14;;;;;;;15.98;3.38;;;17.80;99.90;;;;;;5335911;26;20083;-62
2024/04/09 03:53:41;;;;;;;12.63;2.57;;;17.70;99.90;;;;;;5338783;26;20377;-61
2024/04/09 03:56:09;;;;;;;10.05;2.55;;;17.60;99.90;;;;;;5335352;26;20008;-61
2024/04/09 03:58:41;;;;;;;11.52;2.72;;;17.60;99.90;;;;;;5337741;26;20005;-62
2024/04/09 04:01:09;;;;;;;15.60;3.65;;;17.50;99.90;;;;;;5335368;26;20001;-61
2024/04/09 04:03:39;;;;;;;15.38;2.85;;;17.50;99.90;;;;;;5337473;26;20017;-60
2024/04/09 04:06:06;;;;;;;16.30;2.58;;;17.50;99.90;;;;;;5337030;26;20598;-59
2024/04/09 04:08:36;;;;;;;16.90;3.55;;;17.40;99.90;;;;;;5337665;26;20021;-62
2024/04/09 04:11:05;;;;;;;17.33;3.13;;;17.40;99.90;;;;;;5337087;26;20091;-62
2024/04/09 04:13:34;;;;;;;11.57;2.60;;;17.40;99.90;;;;;;5336576;26;20016;-60
2024/04/09 04:16:06;;;;;;;22.60;3.60;;;17.40;99.90;;;;;;5336219;26;20054;-62
2024/04/09 04:18:35;;;;;;;10.27;2.80;;;17.30;99.90;;;;;;5337206;26;20012;-62
2024/04/09 04:21:13;;;;;;;12.70;2.28;;;17.30;99.90;;;;;;5337170;26;20004;-61
2024/04/09 04:23:45;;;;;;;12.75;2.30;;;17.30;99.90;;;;;;5336153;26;20001;-62
2024/04/09 04:26:13;;;;;;;17.90;3.08;;;17.20;99.90;;;;;;5337079;26;20511;-62
2024/04/09 04:28:44;;;;;;;9.82;2.35;;;17.10;99.90;;;;;;5337172;26;20107;-62
2024/04/09 04:31:16;;;;;;;17.02;3.17;;;17.00;99.90;;;;;;5336778;26;20456;-62
2024/04/09 04:33:44;;;;;;;15.27;3.22;;;17.00;99.90;;;;;;5336965;26;20516;-62
2024/04/09 04:36:12;;;;;;;8.57;2.05;;;16.90;99.90;;;;;;5336400;26;20033;-62
2024/04/09 04:38:43;;;;;;;12.77;2.40;;;16.80;99.90;;;;;;5339042;26;20032;-60
2024/04/09 04:41:11;;;;;;;13.45;3.05;;;16.70;99.90;;;;;;5341044;26;20009;-62
2024/04/09 04:43:38;;;;;;;10.55;2.35;;;16.60;99.90;;;;;;5340995;26;20326;-62
2024/04/09 04:46:07;;;;;;;12.52;2.53;;;16.60;99.90;;;;;;5338700;26;20461;-62
2024/04/09 04:48:34;;;;;;;9.55;2.55;;;16.60;99.90;;;;;;5339193;26;20457;-60
2024/04/09 04:51:03;;;;;;;8.20;2.53;;;16.60;99.90;;;;;;5340760;26;20005;-62
2024/04/09 04:53:30;;;;;;;11.15;2.35;;;16.60;99.90;;;;;;5339701;26;20008;-62
2024/04/09 04:55:57;;;;;;;11.10;2.67;;;16.60;99.90;;;;;;5336888;26;20547;-61
2024/04/09 04:58:24;;;;;;;12.10;2.45;;;16.60;99.90;;;;;;5347711;26;20534;-62
2024/04/09 05:00:52;;;;;;;11.35;3.28;;;16.60;99.90;;;;;;5351492;26;20015;-62
2024/04/09 05:03:20;;;;;;;13.88;2.55;;;16.60;99.90;;;;;;5354120;26;20012;-62
2024/04/09 05:05:47;;;;;;;17.27;2.80;;;16.60;99.90;;;;;;5349041;26;20017;-61
2024/04/09 05:08:14;;;;;;;8.65;2.47;;;16.70;99.90;;;;;;5341181;26;20005;-61
2024/04/09 05:10:41;;;;;;;11.02;2.63;;;16.70;99.90;;;;;;5340910;26;20012;-60
2024/04/09 05:13:08;;;;;;;13.05;2.72;;;16.80;99.90;;;;;;5340785;26;20001;-61
2024/04/09 05:15:35;;;;;;;11.48;3.05;;;16.80;99.90;;;;;;5352304;26;20016;-62
2024/04/09 05:18:02;;;;;;;10.23;2.17;;;16.80;99.90;;;;;;5353616;26;20019;-61
2024/04/09 05:20:30;;;;;;;13.05;2.35;;;16.90;99.90;;;;;;5355526;26;20390;-62
2024/04/09 05:22:57;;;;;;;7.75;2.15;;;16.90;99.90;;;;;;5347031;26;20004;-61
2024/04/09 05:25:30;;;;;;;10.88;2.70;;;16.90;99.90;;;;;;5309153;26;20015;-60
2024/04/09 05:27:57;;;;;;;10.75;2.85;;;16.90;99.90;;;;;;5339484;26;20001;-62
2024/04/09 05:30:24;;;;;;;9.57;2.25;;;16.90;99.90;;;;;;5343096;26;20020;-60
2024/04/09 05:32:51;;;;;;;14.18;2.10;;;16.90;99.90;;;;;;5340637;26;20015;-62
2024/04/09 05:35:19;;;;;;;11.07;2.60;;;16.80;99.90;;;;;;5339550;26;20028;-62
2024/04/09 05:37:47;;;;;;;4.68;0.80;;;16.70;99.90;;;;;;5339925;26;20031;-62
2024/04/09 05:40:14;;;;;;;4.55;1.00;;;16.10;99.90;;;;;;5336260;26;22297;-62
2024/04/09 05:42:43;;;;;;;2.38;0.50;;;15.30;99.90;;;;;;5338025;26;20591;-59
2024/04/09 05:45:13;;;;;;;2.03;0.88;;;14.80;99.90;;;;;;5337899;26;20004;-60
2024/04/09 05:47:41;;;;;;;2.15;0.30;;;14.30;99.90;;;;;;5335260;26;20020;-59
2024/04/09 05:50:08;;;;;;;0.77;0.22;;;14.00;99.90;;;;;;5337813;26;20001;-60
2024/04/09 05:52:36;;;;;;;0.80;0.35;;;13.70;99.90;;;;;;5336818;26;20086;-61
2024/04/09 05:55:05;;;;;;;0.73;0.45;;;13.60;99.90;;;;;;5339683;26;20075;-61
2024/04/09 05:57:38;;;;;;;0.73;0.30;;;13.40;99.90;;;;;;5339747;26;20033;-61
2024/04/09 06:00:19;;;;;;;1.40;0.40;;;13.20;99.90;;;;;;5339053;26;20004;-61
2024/04/09 06:02:47;;;;;;;0.55;0.32;;;13.20;99.90;;;;;;5337467;26;20028;-61
2024/04/09 06:05:17;;;;;;;1.33;0.30;;;13.20;99.90;;;;;;5335222;26;20019;-61
2024/04/09 06:07:45;;;;;;;1.65;0.30;;;13.20;99.90;;;;;;5336577;26;20001;-61
2024/04/09 06:10:15;;;;;;;2.85;0.30;;;13.10;99.90;;;;;;5336187;26;20005;-61
2024/04/09 06:12:42;;;;;;;0.80;0.30;;;13.00;99.90;;;;;;5336222;26;19997;-61
2024/04/09 06:15:09;;;;;;;1.65;0.30;;;13.10;99.90;;;;;;5336447;26;20005;-61
2024/04/09 06:17:36;;;;;;;3.60;0.30;;;13.00;99.90;;;;;;5304591;26;20001;-61
2024/04/09 06:20:04;;;;;;;0.40;0.30;;;13.00;99.90;;;;;;5337734;26;20019;-61
2024/04/09 06:22:32;;;;;;;0.65;0.30;;;13.00;99.90;;;;;;5339889;26;19997;-61
2024/04/09 06:24:59;;;;;;;1.30;0.20;;;13.10;99.90;;;;;;5339826;26;20568;-61
2024/04/09 06:27:26;;;;;;;0.88;0.38;;;13.00;99.90;;;;;;5340036;26;20008;-62
2024/04/09 06:29:53;;;;;;;0.82;0.40;;;13.00;99.90;;;;;;5339928;26;20009;-62
2024/04/09 06:32:19;;;;;;;0.47;0.28;;;12.90;99.90;;;;;;5339493;26;20016;-62
2024/04/09 06:34:46;;;;;;;1.15;0.75;;;12.80;99.90;;;;;;5339551;26;20005;-62
2024/04/09 06:37:13;;;;;;;1.15;0.30;;;12.80;99.90;;;;;;5339776;26;19997;-61
2024/04/09 06:39:40;;;;;;;0.70;0.30;;;13.00;99.90;;;;;;5339459;26;20004;-62
2024/04/09 06:42:07;;;;;;;0.57;0.30;;;13.00;99.90;;;;;;5339669;26;20001;-62
2024/04/09 06:44:34;;;;;;;0.20;0.20;;;13.00;99.90;;;;;;5339132;26;20473;-61
2024/04/09 06:47:01;;;;;;;0.32;0.22;;;13.00;99.90;;;;;;5339064;26;20001;-61
2024/04/09 06:49:28;;;;;;;0.57;0.30;;;13.00;99.90;;;;;;5339947;26;20045;-60
2024/04/09 06:51:56;;;;;;;0.40;0.25;;;12.80;99.90;;;;;;5333471;26;20393;-61
2024/04/09 06:54:23;;;;;;;0.80;0.22;;;12.90;99.90;;;;;;5339771;26;20023;-61
2024/04/09 06:56:50;;;;;;;0.70;0.28;;;12.90;99.90;;;;;;5339742;26;20012;-59
2024/04/09 06:59:17;;;;;;;0.90;0.20;;;12.80;99.90;;;;;;5339925;26;20351;-58
2024/04/09 07:01:44;;;;;;;0.57;0.20;;;12.70;99.90;;;;;;5338674;26;20001;-61
2024/04/09 07:04:11;;;;;;;0.75;0.30;;;12.80;99.90;;;;;;5340308;26;20005;-61
2024/04/09 07:06:39;;;;;;;1.08;0.30;;;12.80;99.90;;;;;;5339144;26;20438;-61
2024/04/09 07:09:06;;;;;;;0.75;0.35;;;12.80;99.90;;;;;;5339341;26;20468;-61
2024/04/09 07:11:34;;;;;;;2.15;0.40;;;12.90;99.90;;;;;;5338801;26;20026;-61
2024/04/09 07:14:01;;;;;;;0.35;0.35;;;12.90;99.90;;;;;;5338989;26;19997;-61
2024/04/09 07:16:28;;;;;;;1.05;0.30;;;12.80;99.90;;;;;;5339211;26;20001;-61
2024/04/09 07:18:55;;;;;;;1.85;0.30;;;12.70;99.90;;;;;;5335786;26;20012;-61
2024/04/09 07:21:22;;;;;;;0.30;0.30;;;12.60;99.90;;;;;;5338830;26;20336;-61
2024/04/09 07:23:49;;;;;;;0.47;0.20;;;12.50;99.90;;;;;;5338524;26;20412;-61
2024/04/09 07:26:16;;;;;;;0.50;0.32;;;12.60;99.90;;;;;;5338686;26;20397;-61
2024/04/09 07:28:43;;;;;;;2.17;0.43;;;12.40;99.90;;;;;;5338768;26;20009;-61
2024/04/09 07:31:10;;;;;;;1.38;0.30;;;12.40;99.90;;;;;;5338866;26;20071;-59
2024/04/09 07:33:37;;;;;;;2.00;0.47;;;12.30;99.90;;;;;;5339205;26;20033;-60
2024/04/09 07:36:05;;;;;;;0.57;0.30;;;12.30;99.90;;;;;;5339183;26;19997;-61
2024/04/09 07:38:31;;;;;;;0.45;0.20;;;12.40;99.90;;;;;;5339146;26;20024;-61
2024/04/09 07:40:58;;;;;;;0.65;0.30;;;12.50;99.90;;;;;;5338415;26;20409;-61
2024/04/09 07:43:27;;;;;;;1.13;0.22;;;12.40;99.90;;;;;;5338265;26;20001;-61
2024/04/09 07:45:58;;;;;;;0.88;0.30;;;12.40;99.90;;;;;;5338224;26;19997;-60
2024/04/09 07:48:25;;;;;;;1.67;0.30;;;12.10;99.90;;;;;;5338900;26;20676;-61
2024/04/09 07:50:52;;;;;;;0.75;0.40;;;12.00;99.90;;;;;;5338440;26;20012;-61
2024/04/09 07:53:20;;;;;;;0.63;0.40;;;12.00;99.90;;;;;;5338621;26;20013;-61
2024/04/09 07:55:47;;;;;;;0.98;0.50;;;12.00;99.90;;;;;;5338278;26;20075;-61
2024/04/09 07:58:14;;;;;;;0.55;0.30;;;11.90;99.90;;;;;;5339099;26;20019;-60
2024/04/09 08:00:44;;;;;;;1.10;0.40;;;11.80;99.90;;;;;;5337720;26;20137;-61
2024/04/09 08:03:11;;;;;;;0.60;0.43;;;11.90;99.90;;;;;;5338590;26;20470;-61
2024/04/09 08:05:39;;;;;;;0.60;0.35;;;11.70;99.90;;;;;;5338144;26;20827;-60
2024/04/09 08:08:07;;;;;;;0.90;0.45;;;11.90;99.90;;;;;;5338637;26;20082;-61
2024/04/09 08:10:34;;;;;;;1.80;0.30;;;11.90;99.90;;;;;;5338333;26;20021;-61
2024/04/09 08:13:01;;;;;;;1.13;0.40;;;11.90;99.90;;;;;;5339937;26;20034;-61
2024/04/09 08:15:29;;;;;;;0.52;0.40;;;11.90;99.90;;;;;;5341667;26;20009;-61
2024/04/09 08:17:56;;;;;;;0.30;0.30;;;11.90;99.90;;;;;;5341071;26;20078;-61
2024/04/09 08:20:24;;;;;;;0.77;0.38;;;11.90;99.90;;;;;;5341485;26;20546;-61
2024/04/09 08:22:52;;;;;;;1.55;0.45;;;11.90;99.90;;;;;;5341213;26;20078;-61
2024/04/09 08:25:20;;;;;;;3.65;0.60;;;11.80;99.90;;;;;;5340994;26;20009;-62
2024/04/09 08:27:48;;;;;;;0.73;0.50;;;11.80;99.90;;;;;;5340871;26;20467;-63
2024/04/09 08:30:23;;;;;;;0.70;0.50;;;11.80;99.90;;;;;;5340992;26;20020;-60
2024/04/09 08:32:51;;;;;;;3.55;0.65;;;11.90;99.90;;;;;;5341073;26;19997;-61
2024/04/09 08:35:19;;;;;;;2.17;0.57;;;12.10;99.90;;;;;;5341245;26;20017;-61
2024/04/09 08:37:47;;;;;;;2.22;0.50;;;12.00;99.90;;;;;;5341293;26;20071;-60
2024/04/09 08:40:18;;;;;;;1.27;0.50;;;11.90;99.90;;;;;;5339621;26;20024;-61
2024/04/09 08:42:45;;;;;;;2.53;0.60;;;11.80;99.90;;;;;;5341845;26;20032;-61
2024/04/09 08:45:15;;;;;;;1.40;0.52;;;11.90;99.90;;;;;;5341984;26;20005;-61
2024/04/09 08:47:48;;;;;;;1.52;0.50;;;12.00;99.90;;;;;;5336037;26;20001;-61
2024/04/09 08:50:16;;;;;;;1.23;0.50;;;12.10;99.90;;;;;;5341663;26;20331;-62
2024/04/09 08:52:44;;;;;;;2.50;0.75;;;12.10;99.90;;;;;;5340965;26;20592;-62
2024/04/09 08:55:15;;;;;;;0.90;0.50;;;12.10;99.90;;;;;;5341565;26;19997;-61
2024/04/09 08:57:48;;;;;;;2.15;0.50;;;12.00;99.90;;;;;;5337383;26;20053;-59
2024/04/09 09:00:16;;;;;;;2.88;0.45;;;11.90;99.90;;;;;;5341371;26;20013;-62
2024/04/09 09:02:46;;;;;;;2.70;0.60;;;11.80;99.90;;;;;;5340845;26;20005;-61
2024/04/09 09:05:18;;;;;;;1.02;0.60;;;11.70;99.90;;;;;;5341312;26;19997;-61
2024/04/09 09:07:46;;;;;;;1.42;0.40;;;11.70;99.90;;;;;;5335389;26;20079;-61
2024/04/09 09:10:13;;;;;;;1.40;0.40;;;11.70;99.90;;;;;;5341165;26;20009;-61
2024/04/09 09:12:40;;;;;;;0.50;0.40;;;11.80;99.90;;;;;;5340670;26;20013;-61
2024/04/09 09:15:08;;;;;;;1.45;0.55;;;11.70;99.90;;;;;;5340994;26;20079;-62
2024/04/09 09:17:35;;;;;;;1.02;0.50;;;11.90;99.90;;;;;;5338345;26;20008;-62
2024/04/09 09:20:09;;;;;;;2.22;0.60;;;11.90;99.90;;;;;;5340846;26;20024;-62
2024/04/09 09:22:43;;;;;;;0.82;0.40;;;11.90;99.90;;;;;;5340961;26;20001;-62
2024/04/09 09:25:18;;;;;;;0.57;0.30;;;11.90;99.90;;;;;;5340028;26;20013;-62
2024/04/09 09:27:46;;;;;;;0.60;0.50;;;11.80;99.90;;;;;;5340789;26;19997;-61
2024/04/09 09:30:16;;;;;;;0.43;0.30;;;11.90;99.90;;;;;;5341103;26;20005;-61
2024/04/09 09:32:48;;;;;;;2.92;0.60;;;12.00;99.90;;;;;;5335087;26;20587;-61
2024/04/09 09:35:18;;;;;;;3.28;0.47;;;12.10;99.90;;;;;;5308479;26;20072;-62
2024/04/09 09:37:48;;;;;;;0.40;0.30;;;12.10;99.90;;;;;;5340162;26;20016;-58
2024/04/09 09:40:16;;;;;;;0.85;0.50;;;12.00;99.90;;;;;;5338480;26;20020;-60
2024/04/09 09:42:44;;;;;;;0.40;0.30;;;12.10;99.90;;;;;;5340569;26;20009;-61
2024/04/09 09:45:13;;;;;;;0.77;0.40;;;12.00;99.90;;;;;;5339103;26;20044;-61
2024/04/09 09:47:40;;;;;;;1.08;0.50;;;12.10;99.90;;;;;;5339725;26;20009;-60
2024/04/09 09:50:08;;;;;;;1.38;0.50;;;12.00;99.90;;;;;;5340268;26;20011;-62
2024/04/09 09:52:44;;;;;;;1.33;0.60;;;12.00;99.90;;;;;;5340395;26;20000;-61
2024/04/09 09:55:12;;;;;;;1.17;0.50;;;12.20;99.90;;;;;;5340421;26;20447;-62
2024/04/09 09:57:44;;;;;;;0.50;0.45;;;12.20;99.90;;;;;;5340246;26;20001;-62
2024/04/09 10:00:15;;;;;;;1.27;0.50;;;12.30;99.90;;;;;;5337529;26;20021;-60
2024/04/09 10:02:44;;;;;;;1.15;0.43;;;12.40;99.90;;;;;;5340127;26;20539;-60
2024/04/09 10:05:14;;;;;;;1.08;0.50;;;12.60;99.90;;;;;;5338450;26;20470;-61
2024/04/09 10:07:43;;;;;;;2.95;0.70;;;12.60;99.90;;;;;;5339527;26;20023;-62
2024/04/09 10:10:10;;;;;;;2.00;0.50;;;12.60;99.90;;;;;;5339862;26;20079;-62
2024/04/09 10:12:37;;;;;;;1.95;0.50;;;12.70;99.90;;;;;;5340255;26;20428;-62
2024/04/09 10:15:14;;;;;;;2.05;0.70;;;12.60;99.90;;;;;;5339574;26;20001;-62
2024/04/09 10:17:54;;;;;;;4.50;0.63;;;12.30;99.90;;;;;;5339824;26;19997;-61
2024/04/09 10:20:37;;;;;;;3.80;0.80;;;12.30;99.90;;;;;;5339996;26;20445;-62
2024/04/09 10:23:05;;;;;;;0.90;0.77;;;12.30;99.90;;;;;;5339913;26;20001;-62
2024/04/09 10:25:39;;;;;;;1.70;0.60;;;12.60;99.90;;;;;;5340067;26;20039;-62
2024/04/09 10:28:13;;;;;;;1.55;0.73;;;12.60;99.90;;;;;;5339798;26;20075;-62
2024/04/09 10:30:45;;;;;;;2.00;1.00;;;12.40;99.90;;;;;;5339816;26;20100;-61
2024/04/09 10:33:12;;;;;;;2.40;0.82;;;12.20;99.90;;;;;;5339547;26;20001;-60
2024/04/09 10:35:43;;;;;;;1.05;0.80;;;12.20;99.90;;;;;;5338604;26;20012;-62
2024/04/09 10:38:11;;;;;;;1.20;0.95;;;12.20;99.90;;;;;;5339244;26;20568;-62
2024/04/09 10:40:38;;;;;;;1.05;0.60;;;12.20;99.90;;;;;;5340462;26;20009;-62
2024/04/09 10:43:10;;;;;;;1.27;0.70;;;12.30;99.90;;;;;;5339401;26;20016;-62
2024/04/09 10:45:37;;;;;;;0.52;0.50;;;12.40;99.90;;;;;;5339717;26;20024;-62
2024/04/09 10:48:22;;;;;;;0.40;0.40;;;12.20;99.90;;;;;;5339327;26;20016;-62
2024/04/09 10:50:53;;;;;;;1.13;0.50;;;12.30;99.90;;;;;;5339501;26;19997;-62
2024/04/09 10:53:21;;;;;;;2.83;0.63;;;12.10;99.90;;;;;;5339021;26;20082;-62
2024/04/09 10:55:48;;;;;;;0.63;0.55;;;12.10;99.90;;;;;;5340130;26;20005;-62
2024/04/09 10:58:17;;;;;;;0.80;0.30;;;12.10;99.90;;;;;;5339989;26;20009;-61
2024/04/09 11:00:50;;;;;;;2.72;0.80;;;12.10;99.90;;;;;;5339559;26;20330;-61
2024/04/09 11:03:25;;;;;;;2.25;0.50;;;12.00;99.90;;;;;;5339905;26;20017;-61
2024/04/09 11:05:52;;;;;;;4.72;0.70;;;11.70;99.90;;;;;;5338966;26;20016;-61
2024/04/09 11:08:30;;;;;;;3.58;0.75;;;11.80;99.90;;;;;;5318431;26;20032;-61
2024/04/09 11:11:02;;;;;;;2.10;0.60;;;12.00;99.90;;;;;;5300014;27;20010;-62
2024/04/09 11:13:34;;;;;;;3.22;0.63;;;12.00;99.90;;;;;;5304429;26;19997;-61
2024/04/09 11:16:01;;;;;;;1.30;0.40;;;12.00;99.90;;;;;;5304292;26;20002;-61
2024/04/09 11:18:29;;;;;;;1.92;0.50;;;12.00;99.90;;;;;;5302691;27;20357;-62
2024/04/09 11:20:58;;;;;;;1.38;0.45;;;11.90;99.90;;;;;;5304088;26;20001;-62
2024/04/09 11:23:25;;;;;;;1.75;0.50;;;11.90;99.90;;;;;;5300842;27;20010;-61
2024/04/09 11:25:53;;;;;;;1.38;0.38;;;12.10;99.90;;;;;;5304349;26;20466;-61
2024/04/09 11:28:21;;;;;;;3.55;0.65;;;11.90;99.90;;;;;;5304687;26;20061;-62
2024/04/09 11:30:55;;;;;;;2.75;0.70;;;12.20;99.90;;;;;;5305043;26;20014;-62
2024/04/09 11:33:27;;;;;;;5.63;0.50;;;12.30;99.90;;;;;;5304875;27;20009;-62
2024/04/09 11:35:57;;;;;;;4.78;0.73;;;12.50;99.90;;;;;;5304270;26;20024;-62
2024/04/09 11:38:25;;;;;;;2.13;0.77;;;12.70;99.90;;;;;;5303128;27;20001;-62
2024/04/09 11:40:52;;;;;;;4.40;0.77;;;12.90;99.90;;;;;;5304312;27;20253;-62
2024/04/09 11:43:22;;;;;;;1.40;0.60;;;13.00;99.90;;;;;;5303638;27;20017;-62
2024/04/09 11:45:52;;;;;;;4.50;0.70;;;13.10;99.90;;;;;;5304562;27;20010;-62
2024/04/09 11:48:19;;;;;;;6.05;0.82;;;13.40;99.90;;;;;;5306132;27;20346;-62
2024/04/09 11:50:47;;;;;;;2.38;0.70;;;13.60;99.90;;;;;;5307538;27;20009;-61
2024/04/09 11:53:14;;;;;;;1.48;0.60;;;13.70;99.90;;;;;;5306645;27;20080;-61
2024/04/09 11:55:48;;;;;;;3.75;0.65;;;13.80;99.90;;;;;;5306871;27;20079;-62
2024/04/09 11:58:15;;;;;;;2.88;0.60;;;13.90;99.90;;;;;;5306378;26;20002;-62
2024/04/09 12:00:42;;;;;;;2.92;0.90;;;14.10;99.90;;;;;;5301725;27;20006;-61
2024/04/09 12:03:09;;;;;;;1.15;0.60;;;14.00;99.90;;;;;;5307290;27;20012;-61
2024/04/09 12:05:36;;;;;;;1.55;0.60;;;14.10;99.90;;;;;;5307646;26;20510;-61
2024/04/09 12:08:05;;;;;;;2.47;0.70;;;14.10;99.90;;;;;;5422076;20;20384;-61
2024/04/09 12:10:32;;;;;;;1.77;0.50;;;13.90;99.90;;;;;;5273004;27;20387;-61
2024/04/09 12:12:58;;;;;;;3.08;0.70;;;13.80;99.90;;;;;;5270981;27;20007;-61
2024/04/09 12:15:25;;;;;;;2.22;0.43;;;13.80;99.90;;;;;;5272719;27;20007;-61
2024/04/09 12:17:52;;;;;;;1.85;0.70;;;13.70;99.90;;;;;;5279381;27;20030;-60
2024/04/09 12:20:19;;;;;;;6.78;0.80;;;13.70;99.90;;;;;;5271920;27;20010;-61
2024/04/09 12:22:47;;;;;;;1.63;0.65;;;13.50;99.90;;;;;;5273083;27;20014;-61
2024/04/09 12:25:14;;;;;;;2.30;0.68;;;13.40;99.90;;;;;;5271830;27;20024;-59
2024/04/09 12:27:41;;;;;;;0.90;0.50;;;13.10;99.90;;;;;;5273215;27;19999;-60
2024/04/09 12:30:08;;;;;;;2.35;0.60;;;12.80;99.90;;;;;;5272352;27;20014;-59
2024/04/09 12:32:36;;;;;;;2.40;0.85;;;12.60;99.90;;;;;;5272917;27;20046;-59
2024/04/09 12:35:03;;;;;;;2.03;0.43;;;12.60;99.90;;;;;;5272523;27;20007;-59
2024/04/09 12:37:30;;;;;;;2.50;0.50;;;12.50;99.90;;;;;;5273451;27;19998;-60
2024/04/09 12:39:57;;;;;;;2.47;0.55;;;12.40;99.90;;;;;;5273380;27;20474;-60
2024/04/09 12:42:26;;;;;;;3.17;0.60;;;12.40;99.90;;;;;;5273444;27;20011;-59
2024/04/09 12:44:54;;;;;;;3.63;0.60;;;12.40;99.90;;;;;;5272818;27;20006;-59
2024/04/09 12:47:22;;;;;;;2.42;0.57;;;12.20;99.90;;;;;;5271512;27;20002;-59
2024/04/09 12:49:48;;;;;;;2.28;0.50;;;12.20;99.90;;;;;;5270471;27;20006;-59